Disclaimer

Please do not use the information listed here in-flight or in-navigation, as they are not provided to us by the airports but are provided by volunteers, so they might be outdated.

Search


Regions


Airport information page

No radio frequency information is available.

Airport informations:
Latitude: 60° 30' 50.91" N
Longitude: 022° 15' 46.11" E
Elevation: 161 feet - 49 meters
Operating hours: N/A
Operating agency: Civil government, landing fees and diplomatic clearance may be required
Timezone: UTC+2(+3DT)
Fuel: Jet A1+, Jet A1 with icing inhibitor.

100/130 MIL Spec, low lead, aviation gasoline (BLUE)

Runway information:
08/26 - 8202 x 197 feet< - >2500 x 60 meters

Recent METARs:
EFTU 170820Z AUTO 26009KT 9999 OVC007/// 06/05 Q1034
EFTU 170850Z AUTO 29007KT 260V330 9999 OVC007/// 06/05 Q1034
EFTU 170920Z AUTO 29006KT 270V330 9999 BKN007/// 07/05 Q1034

Airport on the map: